sensor_id;sensor_type;location;lat;lon;timestamp;pressure;altitude;pressure_sealevel;temperature;humidity
35248;BME280;21380;52.194;20.520;2022-11-15T00:00:33;100901.72;;;17.31;59.00
35248;BME280;21380;52.194;20.520;2022-11-15T00:03:05;100884.22;;;17.26;59.05
35248;BME280;21380;52.194;20.520;2022-11-15T00:05:34;100820.13;;;16.93;58.84
35248;BME280;21380;52.194;20.520;2022-11-15T00:08:01;100882.56;;;17.29;58.93
35248;BME280;21380;52.194;20.520;2022-11-15T00:10:27;100870.25;;;17.24;59.01
35248;BME280;21380;52.194;20.520;2022-11-15T00:15:40;100828.97;;;17.01;59.05
35248;BME280;21380;52.194;20.520;2022-11-15T00:18:12;100838.66;;;17.07;58.95
35248;BME280;21380;52.194;20.520;2022-11-15T00:20:38;100863.25;;;17.21;59.02
35248;BME280;21380;52.194;20.520;2022-11-15T00:23:04;100820.19;;;16.97;58.91
35248;BME280;21380;52.194;20.520;2022-11-15T00:25:30;100826.28;;;16.96;58.91
35248;BME280;21380;52.194;20.520;2022-11-15T00:27:58;100838.69;;;17.10;58.96
35248;BME280;21380;52.194;20.520;2022-11-15T00:30:24;100859.81;;;17.22;58.96
35248;BME280;21380;52.194;20.520;2022-11-15T00:32:50;100826.38;;;17.02;58.96
35248;BME280;21380;52.194;20.520;2022-11-15T00:35:17;100858.97;;;17.23;59.13
35248;BME280;21380;52.194;20.520;2022-11-15T00:37:43;100858.97;;;17.23;59.15
35248;BME280;21380;52.194;20.520;2022-11-15T00:40:10;100793.91;;;16.86;59.13
35248;BME280;21380;52.194;20.520;2022-11-15T00:42:38;100845.94;;;17.23;58.97
35248;BME280;21380;52.194;20.520;2022-11-15T00:45:19;100806.22;;;16.94;59.08
35248;BME280;21380;52.194;20.520;2022-11-15T00:47:46;100827.28;;;17.03;58.98
35248;BME280;21380;52.194;20.520;2022-11-15T00:50:12;100816.69;;;16.95;58.95
35248;BME280;21380;52.194;20.520;2022-11-15T00:52:39;100827.31;;;17.05;58.93
35248;BME280;21380;52.194;20.520;2022-11-15T00:55:05;100818.56;;;17.02;59.08
35248;BME280;21380;52.194;20.520;2022-11-15T00:57:31;100811.44;;;16.94;58.94
35248;BME280;21380;52.194;20.520;2022-11-15T00:59:57;100842.31;;;17.16;59.15
35248;BME280;21380;52.194;20.520;2022-11-15T01:02:23;100845.81;;;17.17;58.88
35248;BME280;21380;52.194;20.520;2022-11-15T01:04:48;100838.81;;;17.16;59.17
35248;BME280;21380;52.194;20.520;2022-11-15T01:07:15;100842.28;;;17.15;59.06
35248;BME280;21380;52.194;20.520;2022-11-15T01:09:41;100761.44;;;16.70;59.29
35248;BME280;21380;52.194;20.520;2022-11-15T01:12:07;100757.09;;;16.71;59.20
35248;BME280;21380;52.194;20.520;2022-11-15T01:14:32;100803.81;;;17.03;59.15
35248;BME280;21380;52.194;20.520;2022-11-15T01:16:59;100820.53;;;17.13;59.09
35248;BME280;21380;52.194;20.520;2022-11-15T01:19:24;100777.63;;;16.95;59.02
35248;BME280;21380;52.194;20.520;2022-11-15T01:21:51;100771.41;;;16.90;59.10
35248;BME280;21380;52.194;20.520;2022-11-15T01:24:17;100815.25;;;17.11;59.11
35248;BME280;21380;52.194;20.520;2022-11-15T01:26:43;100800.44;;;17.09;59.27
35248;BME280;21380;52.194;20.520;2022-11-15T01:29:09;100804.78;;;17.08;59.18
35248;BME280;21380;52.194;20.520;2022-11-15T01:31:35;100758.19;;;16.82;59.05
35248;BME280;21380;52.194;20.520;2022-11-15T01:34:01;100788.19;;;17.03;59.17
35248;BME280;21380;52.194;20.520;2022-11-15T01:36:27;100778.47;;;16.94;59.18
35248;BME280;21380;52.194;20.520;2022-11-15T01:38:55;100772.31;;;16.92;59.09
35248;BME280;21380;52.194;20.520;2022-11-15T01:41:35;100772.31;;;16.92;59.14
35248;BME280;21380;52.194;20.520;2022-11-15T01:44:31;100796.09;;;17.08;59.13
35248;BME280;21380;52.194;20.520;2022-11-15T01:47:36;100754.72;;;16.82;59.27
35248;BME280;21380;52.194;20.520;2022-11-15T01:50:10;100782.03;;;16.99;59.29
35248;BME280;21380;52.194;20.520;2022-11-15T01:52:39;100789.97;;;17.06;59.26
35248;BME280;21380;52.194;20.520;2022-11-15T01:55:09;100749.66;;;16.90;59.07
35248;BME280;21380;52.194;20.520;2022-11-15T01:57:37;100772.47;;;17.00;59.34
35248;BME280;21380;52.194;20.520;2022-11-15T02:00:04;100718.16;;;16.77;59.33
35248;BME280;21380;52.194;20.520;2022-11-15T02:02:32;100731.22;;;16.79;59.23
35248;BME280;21380;52.194;20.520;2022-11-15T02:04:58;100691.78;;;16.60;59.04
35248;BME280;21380;52.194;20.520;2022-11-15T02:07:24;100692.63;;;16.59;59.11
35248;BME280;21380;52.194;20.520;2022-11-15T02:09:51;100710.28;;;16.74;59.17
35248;BME280;21380;52.194;20.520;2022-11-15T02:12:19;100746.38;;;16.98;59.14
35248;BME280;21380;52.194;20.520;2022-11-15T02:14:49;100755.97;;;16.99;59.30
35248;BME280;21380;52.194;20.520;2022-11-15T02:26:13;100741.19;;;16.98;59.13
35248;BME280;21380;52.194;20.520;2022-11-15T02:29:06;100742.91;;;16.98;59.17
35248;BME280;21380;52.194;20.520;2022-11-15T02:31:45;100660.34;;;16.52;59.08
35248;BME280;21380;52.194;20.520;2022-11-15T02:34:28;100737.69;;;16.96;59.01
35248;BME280;21380;52.194;20.520;2022-11-15T02:37:02;100726.34;;;16.96;59.23
35248;BME280;21380;52.194;20.520;2022-11-15T02:39:46;100717.53;;;16.91;59.25
35248;BME280;21380;52.194;20.520;2022-11-15T02:42:22;100725.50;;;16.95;59.25
35248;BME280;21380;52.194;20.520;2022-11-15T02:45:13;100692.06;;;16.76;59.19
35248;BME280;21380;52.194;20.520;2022-11-15T02:47:43;100679.78;;;16.68;59.05
35248;BME280;21380;52.194;20.520;2022-11-15T02:50:13;100655.19;;;16.54;59.13
35248;BME280;21380;52.194;20.520;2022-11-15T02:52:40;100701.69;;;16.80;59.10
35248;BME280;21380;52.194;20.520;2022-11-15T02:55:26;100673.63;;;16.65;59.16
35248;BME280;21380;52.194;20.520;2022-11-15T02:58:21;100719.34;;;16.92;59.15
35248;BME280;21380;52.194;20.520;2022-11-15T03:09:42;100696.69;;;16.89;59.15
35248;BME280;21380;52.194;20.520;2022-11-15T03:15:09;100687.09;;;16.88;59.18
35248;BME280;21380;52.194;20.520;2022-11-15T03:17:42;100620.31;;;16.46;59.30
35248;BME280;21380;52.194;20.520;2022-11-15T03:20:11;100659.81;;;16.69;59.27
35248;BME280;21380;52.194;20.520;2022-11-15T03:22:43;100658.94;;;16.68;59.21
35248;BME280;21380;52.194;20.520;2022-11-15T03:25:12;100697.53;;;16.90;59.16
35248;BME280;21380;52.194;20.520;2022-11-15T03:27:46;100616.06;;;16.52;59.18
35248;BME280;21380;52.194;20.520;2022-11-15T03:30:13;100677.53;;;16.87;59.10
35248;BME280;21380;52.194;20.520;2022-11-15T03:32:47;100677.50;;;16.85;59.09
35248;BME280;21380;52.194;20.520;2022-11-15T03:35:19;100615.28;;;16.55;59.08
35248;BME280;21380;52.194;20.520;2022-11-15T03:40:24;100676.59;;;16.85;59.20
35248;BME280;21380;52.194;20.520;2022-11-15T03:43:17;100672.25;;;16.84;59.17
35248;BME280;21380;52.194;20.520;2022-11-15T03:45:56;100609.97;;;16.49;59.13
35248;BME280;21380;52.194;20.520;2022-11-15T03:48:27;100600.47;;;16.52;59.11
35248;BME280;21380;52.194;20.520;2022-11-15T03:50:56;100589.88;;;16.43;59.18
35248;BME280;21380;52.194;20.520;2022-11-15T03:53:22;100643.50;;;16.78;59.16
35248;BME280;21380;52.194;20.520;2022-11-15T03:55:48;100605.72;;;16.54;58.91
35248;BME280;21380;52.194;20.520;2022-11-15T03:58:16;100605.72;;;16.54;59.10
35248;BME280;21380;52.194;20.520;2022-11-15T04:00:42;100643.50;;;16.79;59.08
35248;BME280;21380;52.194;20.520;2022-11-15T04:03:08;100612.84;;;16.64;59.24
35248;BME280;21380;52.194;20.520;2022-11-15T04:05:34;100613.72;;;16.65;59.02
35248;BME280;21380;52.194;20.520;2022-11-15T04:08:03;100646.13;;;16.81;59.22
35248;BME280;21380;52.194;20.520;2022-11-15T04:10:29;100628.72;;;16.77;59.10
35248;BME280;21380;52.194;20.520;2022-11-15T04:12:55;100633.09;;;16.79;59.05
35248;BME280;21380;52.194;20.520;2022-11-15T04:15:23;100627.75;;;16.73;59.05
35248;BME280;21380;52.194;20.520;2022-11-15T04:17:54;100625.06;;;16.68;59.02
35248;BME280;21380;52.194;20.520;2022-11-15T04:20:24;100607.53;;;16.58;59.19
35248;BME280;21380;52.194;20.520;2022-11-15T04:23:12;100639.94;;;16.73;59.09
35248;BME280;21380;52.194;20.520;2022-11-15T04:25:58;100604.91;;;16.57;59.02
35248;BME280;21380;52.194;20.520;2022-11-15T04:28:25;100630.25;;;16.67;59.00
35248;BME280;21380;52.194;20.520;2022-11-15T04:30:51;100633.91;;;16.75;59.01
35248;BME280;21380;52.194;20.520;2022-11-15T04:33:17;100555.81;;;16.32;59.03
35248;BME280;21380;52.194;20.520;2022-11-15T04:35:43;100611.09;;;16.63;59.08
35248;BME280;21380;52.194;20.520;2022-11-15T04:38:30;100614.59;;;16.65;59.19
35248;BME280;21380;52.194;20.520;2022-11-15T04:40:58;100590.13;;;16.57;59.27
35248;BME280;21380;52.194;20.520;2022-11-15T04:43:26;100576.13;;;16.49;59.15
35248;BME280;21380;52.194;20.520;2022-11-15T04:45:52;100564.78;;;16.47;59.08
35248;BME280;21380;52.194;20.520;2022-11-15T04:48:18;100620.81;;;16.74;59.06
35248;BME280;21380;52.194;20.520;2022-11-15T04:50:44;100548.94;;;16.34;59.12
35248;BME280;21380;52.194;20.520;2022-11-15T04:53:10;100568.31;;;16.49;59.06
35248;BME280;21380;52.194;20.520;2022-11-15T04:55:36;100599.00;;;16.67;59.18
35248;BME280;21380;52.194;20.520;2022-11-15T04:58:02;100553.41;;;16.42;58.89
35248;BME280;21380;52.194;20.520;2022-11-15T05:00:31;100589.41;;;16.64;58.99
35248;BME280;21380;52.194;20.520;2022-11-15T05:02:57;100609.56;;;16.75;58.96
35248;BME280;21380;52.194;20.520;2022-11-15T05:05:44;100545.53;;;16.38;59.06
35248;BME280;21380;52.194;20.520;2022-11-15T05:08:10;100599.97;;;16.74;59.12
35248;BME280;21380;52.194;20.520;2022-11-15T05:10:36;100548.19;;;16.40;59.14
35248;BME280;21380;52.194;20.520;2022-11-15T05:13:02;100531.53;;;16.33;59.03
35248;BME280;21380;52.194;20.520;2022-11-15T05:15:28;100561.44;;;16.54;59.16
35248;BME280;21380;52.194;20.520;2022-11-15T05:17:58;100548.25;;;16.45;59.02
35248;BME280;21380;52.194;20.520;2022-11-15T05:20:26;100597.34;;;16.70;59.31
35248;BME280;21380;52.194;20.520;2022-11-15T05:22:53;100592.16;;;16.72;59.00
35248;BME280;21380;52.194;20.520;2022-11-15T05:25:22;100569.38;;;16.60;58.88
35248;BME280;21380;52.194;20.520;2022-11-15T05:27:48;100592.22;;;16.75;59.14
35248;BME280;21380;52.194;20.520;2022-11-15T05:30:15;100562.38;;;16.58;58.92
35248;BME280;21380;52.194;20.520;2022-11-15T05:32:41;100584.41;;;16.75;58.87
35248;BME280;21380;52.194;20.520;2022-11-15T05:35:08;100587.00;;;16.75;59.00
35248;BME280;21380;52.194;20.520;2022-11-15T05:37:42;100562.50;;;16.65;60.02
35248;BME280;21380;52.194;20.520;2022-11-15T05:40:08;100542.31;;;16.53;59.34
35248;BME280;21380;52.194;20.520;2022-11-15T05:42:38;100573.88;;;16.70;60.20
35248;BME280;21380;52.194;20.520;2022-11-15T05:45:08;100573.69;;;14.32;58.47
35248;BME280;21380;52.194;20.520;2022-11-15T05:47:35;100596.75;;;11.42;67.78
35248;BME280;21380;52.194;20.520;2022-11-15T05:50:04;100619.38;;;10.65;71.17
35248;BME280;21380;52.194;20.520;2022-11-15T05:52:31;100588.06;;;11.19;70.92
35248;BME280;21380;52.194;20.520;2022-11-15T05:55:01;100603.75;;;12.36;70.57
35248;BME280;21380;52.194;20.520;2022-11-15T05:57:28;100590.75;;;13.10;67.67
35248;BME280;21380;52.194;20.520;2022-11-15T05:59:54;100573.38;;;13.62;66.58
35248;BME280;21380;52.194;20.520;2022-11-15T06:02:20;100594.00;;;14.17;64.06
35248;BME280;21380;52.194;20.520;2022-11-15T06:04:46;100591.50;;;14.52;63.04
35248;BME280;21380;52.194;20.520;2022-11-15T06:07:12;100589.63;;;14.78;62.22
35248;BME280;21380;52.194;20.520;2022-11-15T06:09:38;100583.13;;;14.94;61.52
35248;BME280;21380;52.194;20.520;2022-11-15T06:12:04;100576.78;;;15.18;60.77
35248;BME280;21380;52.194;20.520;2022-11-15T06:14:30;100583.25;;;15.35;60.46
35248;BME280;21380;52.194;20.520;2022-11-15T06:16:56;100589.59;;;15.48;60.43
35248;BME280;21380;52.194;20.520;2022-11-15T06:19:22;100589.75;;;15.54;60.14
35248;BME280;21380;52.194;20.520;2022-11-15T06:21:47;100589.06;;;15.63;59.89
35248;BME280;21380;52.194;20.520;2022-11-15T06:24:13;100592.66;;;15.68;59.67
35248;BME280;21380;52.194;20.520;2022-11-15T06:26:39;100585.00;;;15.76;59.14
35248;BME280;21380;52.194;20.520;2022-11-15T06:29:05;100572.88;;;15.75;59.26
35248;BME280;21380;52.194;20.520;2022-11-15T06:31:32;100573.09;;;15.84;59.16
35248;BME280;21380;52.194;20.520;2022-11-15T06:33:58;100579.25;;;15.88;59.06
35248;BME280;21380;52.194;20.520;2022-11-15T06:36:24;100580.22;;;15.93;59.11
35248;BME280;21380;52.194;20.520;2022-11-15T06:38:50;100595.16;;;16.03;59.19
35248;BME280;21380;52.194;20.520;2022-11-15T06:41:16;100590.88;;;16.05;59.29
35248;BME280;21380;52.194;20.520;2022-11-15T06:43:43;100590.84;;;16.04;59.25
35248;BME280;21380;52.194;20.520;2022-11-15T06:46:09;100580.47;;;16.05;59.15
35248;BME280;21380;52.194;20.520;2022-11-15T06:48:35;100588.38;;;16.10;59.24
35248;BME280;21380;52.194;20.520;2022-11-15T06:51:03;100585.84;;;16.15;59.22
35248;BME280;21380;52.194;20.520;2022-11-15T06:53:30;100595.41;;;16.16;59.25
35248;BME280;21380;52.194;20.520;2022-11-15T06:56:04;100590.31;;;16.20;59.17
35248;BME280;21380;52.194;20.520;2022-11-15T06:58:30;100585.09;;;16.20;59.10
35248;BME280;21380;52.194;20.520;2022-11-15T07:01:07;100579.81;;;16.17;59.31
35248;BME280;21380;52.194;20.520;2022-11-15T07:03:38;100590.41;;;16.25;59.05
35248;BME280;21380;52.194;20.520;2022-11-15T07:06:05;100588.69;;;16.27;58.95
35248;BME280;21380;52.194;20.520;2022-11-15T07:08:31;100587.00;;;16.29;58.99
35248;BME280;21380;52.194;20.520;2022-11-15T07:11:02;100587.88;;;16.30;59.17
35248;BME280;21380;52.194;20.520;2022-11-15T07:13:29;100591.41;;;16.32;59.05
35248;BME280;21380;52.194;20.520;2022-11-15T07:16:02;100595.75;;;16.31;58.98
35248;BME280;21380;52.194;20.520;2022-11-15T07:18:29;100587.06;;;16.32;59.03
35248;BME280;21380;52.194;20.520;2022-11-15T07:20:55;100585.38;;;16.34;59.17
35248;BME280;21380;52.194;20.520;2022-11-15T07:23:21;100592.25;;;16.31;58.98
35248;BME280;21380;52.194;20.520;2022-11-15T07:25:47;100596.59;;;16.32;59.01
35248;BME280;21380;52.194;20.520;2022-11-15T07:28:13;100599.31;;;16.36;59.11
35248;BME280;21380;52.194;20.520;2022-11-15T07:30:38;100583.72;;;16.38;59.06
35248;BME280;21380;52.194;20.520;2022-11-15T07:33:04;100589.78;;;16.38;59.19
35248;BME280;21380;52.194;20.520;2022-11-15T07:35:30;100579.34;;;16.37;59.14
35248;BME280;21380;52.194;20.520;2022-11-15T07:37:58;100584.56;;;16.38;59.08
35248;BME280;21380;52.194;20.520;2022-11-15T07:40:28;100583.72;;;16.40;59.11
35248;BME280;21380;52.194;20.520;2022-11-15T07:43:02;100575.91;;;16.38;59.05
35248;BME280;21380;52.194;20.520;2022-11-15T07:45:29;100582.88;;;16.39;58.99
35248;BME280;21380;52.194;20.520;2022-11-15T07:47:55;100579.44;;;16.42;59.27
35248;BME280;21380;52.194;20.520;2022-11-15T07:50:23;100577.72;;;16.44;59.18
35248;BME280;21380;52.194;20.520;2022-11-15T07:52:56;100576.00;;;16.43;59.01
35248;BME280;21380;52.194;20.520;2022-11-15T07:55:27;100575.19;;;16.45;59.31
35248;BME280;21380;52.194;20.520;2022-11-15T07:58:00;100573.44;;;16.46;59.15
35248;BME280;21380;52.194;20.520;2022-11-15T08:00:27;100568.13;;;16.40;59.25
35248;BME280;21380;52.194;20.520;2022-11-15T08:02:52;100571.69;;;16.45;59.04
35248;BME280;21380;52.194;20.520;2022-11-15T08:05:18;100569.00;;;16.40;59.26
35248;BME280;21380;52.194;20.520;2022-11-15T08:07:44;100578.66;;;16.47;59.01
35248;BME280;21380;52.194;20.520;2022-11-15T08:10:10;100570.84;;;16.47;59.13
35248;BME280;21380;52.194;20.520;2022-11-15T08:12:37;100546.31;;;16.34;59.34
35248;BME280;21380;52.194;20.520;2022-11-15T08:15:03;100560.50;;;16.50;59.51
35248;BME280;21380;52.194;20.520;2022-11-15T08:17:29;100556.16;;;16.51;59.41
35248;BME280;21380;52.194;20.520;2022-11-15T08:19:58;100550.97;;;16.51;59.33
35248;BME280;21380;52.194;20.520;2022-11-15T08:22:24;100546.66;;;16.51;59.33
35248;BME280;21380;52.194;20.520;2022-11-15T08:24:50;100546.66;;;16.51;59.40
35248;BME280;21380;52.194;20.520;2022-11-15T08:27:16;100541.38;;;16.50;59.38
35248;BME280;21380;52.194;20.520;2022-11-15T08:29:43;100545.75;;;16.51;59.33
35248;BME280;21380;52.194;20.520;2022-11-15T08:32:10;100532.72;;;16.51;59.35
35248;BME280;21380;52.194;20.520;2022-11-15T08:34:37;100537.97;;;16.52;59.31
35248;BME280;21380;52.194;20.520;2022-11-15T08:37:04;100530.97;;;16.50;59.39
35248;BME280;21380;52.194;20.520;2022-11-15T08:39:30;100541.47;;;16.53;59.37
35248;BME280;21380;52.194;20.520;2022-11-15T08:41:56;100530.19;;;16.54;59.34
35248;BME280;21380;52.194;20.520;2022-11-15T08:44:22;100525.75;;;16.48;59.22
35248;BME280;21380;52.194;20.520;2022-11-15T08:46:49;100507.50;;;16.47;59.24
35248;BME280;21380;52.194;20.520;2022-11-15T08:49:16;100519.72;;;16.51;59.11
35248;BME280;21380;52.194;20.520;2022-11-15T08:51:42;100530.19;;;16.54;59.31
35248;BME280;21380;52.194;20.520;2022-11-15T08:54:08;100510.94;;;16.46;59.29
35248;BME280;21380;52.194;20.520;2022-11-15T08:56:34;100529.31;;;16.53;59.17
35248;BME280;21380;52.194;20.520;2022-11-15T08:58:59;100535.41;;;16.54;59.11
35248;BME280;21380;52.194;20.520;2022-11-15T09:01:25;100519.81;;;16.56;59.30
35248;BME280;21380;52.194;20.520;2022-11-15T09:03:51;100523.22;;;16.53;59.33
35248;BME280;21380;52.194;20.520;2022-11-15T09:06:18;100518.06;;;16.56;59.31
35248;BME280;21380;52.194;20.520;2022-11-15T09:08:44;100509.28;;;16.51;58.99
35248;BME280;21380;52.194;20.520;2022-11-15T09:11:10;100517.09;;;16.49;59.30
35248;BME280;21380;52.194;20.520;2022-11-15T09:13:36;100513.56;;;16.47;59.35
35248;BME280;21380;52.194;20.520;2022-11-15T09:16:03;100510.19;;;16.51;59.32
35248;BME280;21380;52.194;20.520;2022-11-15T09:18:29;100514.63;;;16.59;59.38
35248;BME280;21380;52.194;20.520;2022-11-15T09:20:57;100507.59;;;16.51;59.36
35248;BME280;21380;52.194;20.520;2022-11-15T09:23:24;100511.97;;;16.54;59.54
35248;BME280;21380;52.194;20.520;2022-11-15T09:25:51;100504.25;;;16.60;59.39
35248;BME280;21380;52.194;20.520;2022-11-15T09:28:18;100497.22;;;16.56;59.32
35248;BME280;21380;52.194;20.520;2022-11-15T09:30:44;100503.38;;;16.61;59.38
35248;BME280;21380;52.194;20.520;2022-11-15T09:33:11;100485.84;;;16.51;59.25
35248;BME280;21380;52.194;20.520;2022-11-15T09:35:37;100506.00;;;16.61;59.33
35248;BME280;21380;52.194;20.520;2022-11-15T09:38:04;100495.56;;;16.60;59.54
35248;BME280;21380;52.194;20.520;2022-11-15T09:40:31;100478.00;;;16.48;59.43
35248;BME280;21380;52.194;20.520;2022-11-15T09:43:32;100492.13;;;16.62;59.43
35248;BME280;21380;52.194;20.520;2022-11-15T09:46:32;100479.91;;;16.57;59.53
35248;BME280;21380;52.194;20.520;2022-11-15T09:49:02;100474.69;;;16.58;59.30
35248;BME280;21380;52.194;20.520;2022-11-15T09:51:38;100483.47;;;16.63;59.31
35248;BME280;21380;52.194;20.520;2022-11-15T09:57:13;100463.41;;;16.58;59.42
35248;BME280;21380;52.194;20.520;2022-11-15T10:02:39;100459.19;;;16.64;59.51
35248;BME280;21380;52.194;20.520;2022-11-15T10:05:16;100454.81;;;16.63;59.36
35248;BME280;21380;52.194;20.520;2022-11-15T10:08:01;100445.31;;;16.65;59.60
35248;BME280;21380;52.194;20.520;2022-11-15T10:10:47;100449.69;;;16.66;59.47
35248;BME280;21380;52.194;20.520;2022-11-15T10:13:23;100440.13;;;16.67;59.28
35248;BME280;21380;52.194;20.520;2022-11-15T10:15:51;100445.31;;;16.67;59.43
35248;BME280;21380;52.194;20.520;2022-11-15T10:21:21;100433.06;;;16.61;59.59
35248;BME280;21380;52.194;20.520;2022-11-15T10:23:47;100433.97;;;16.62;59.46
35248;BME280;21380;52.194;20.520;2022-11-15T10:26:16;100447.94;;;16.68;59.64
35248;BME280;21380;52.194;20.520;2022-11-15T10:28:42;100447.09;;;16.68;59.54
35248;BME280;21380;52.194;20.520;2022-11-15T10:31:24;100438.34;;;16.64;59.40
35248;BME280;21380;52.194;20.520;2022-11-15T10:33:51;100446.25;;;16.69;59.40
35248;BME280;21380;52.194;20.520;2022-11-15T10:36:24;100434.91;;;16.65;59.68
35248;BME280;21380;52.194;20.520;2022-11-15T10:43:45;100439.28;;;16.68;59.85
35248;BME280;21380;52.194;20.520;2022-11-15T10:46:29;100429.69;;;16.65;59.56
35248;BME280;21380;52.194;20.520;2022-11-15T10:49:13;100428.84;;;16.68;59.53
35248;BME280;21380;52.194;20.520;2022-11-15T10:51:59;100432.38;;;16.72;59.50
35248;BME280;21380;52.194;20.520;2022-11-15T10:54:44;100422.75;;;16.67;59.61
35248;BME280;21380;52.194;20.520;2022-11-15T10:57:25;100436.75;;;16.73;59.62
35248;BME280;21380;52.194;20.520;2022-11-15T10:59:55;100441.06;;;16.72;59.56
35248;BME280;21380;52.194;20.520;2022-11-15T11:05:00;100421.91;;;16.68;59.50
35248;BME280;21380;52.194;20.520;2022-11-15T11:07:30;100415.88;;;16.71;59.69
35248;BME280;21380;52.194;20.520;2022-11-15T11:10:19;100414.16;;;16.72;59.62
35248;BME280;21380;52.194;20.520;2022-11-15T11:12:46;100389.69;;;16.60;59.71
35248;BME280;21380;52.194;20.520;2022-11-15T11:15:15;100401.97;;;16.70;59.48
35248;BME280;21380;52.194;20.520;2022-11-15T11:20:40;100395.06;;;16.73;59.70
35248;BME280;21380;52.194;20.520;2022-11-15T11:46:16;100375.09;;;16.73;59.75
35248;BME280;21380;52.194;20.520;2022-11-15T11:48:46;100371.63;;;16.73;59.88
35248;BME280;21380;52.194;20.520;2022-11-15T11:51:23;100375.09;;;16.75;59.85
35248;BME280;21380;52.194;20.520;2022-11-15T11:56:26;100362.06;;;16.73;59.81
35248;BME280;21380;52.194;20.520;2022-11-15T11:58:57;100346.34;;;16.65;59.59
35248;BME280;21380;52.194;20.520;2022-11-15T12:01:37;100359.47;;;16.75;59.76
35248;BME280;21380;52.194;20.520;2022-11-15T12:04:11;100357.78;;;16.75;59.82
35248;BME280;21380;52.194;20.520;2022-11-15T12:09:22;100354.28;;;16.75;59.69
35248;BME280;21380;52.194;20.520;2022-11-15T12:12:08;100351.66;;;16.75;59.59
35248;BME280;21380;52.194;20.520;2022-11-15T12:15:04;100350.81;;;16.76;59.56
35248;BME280;21380;52.194;20.520;2022-11-15T12:17:36;100337.78;;;16.74;59.59
35248;BME280;21380;52.194;20.520;2022-11-15T12:20:20;100342.09;;;16.72;59.80
35248;BME280;21380;52.194;20.520;2022-11-15T12:22:53;100344.69;;;16.74;60.15
35248;BME280;21380;52.194;20.520;2022-11-15T12:25:48;100340.41;;;16.76;59.78
35248;BME280;21380;52.194;20.520;2022-11-15T12:34:03;100314.25;;;16.69;59.74
35248;BME280;21380;52.194;20.520;2022-11-15T12:36:39;100334.34;;;16.77;59.74
35248;BME280;21380;52.194;20.520;2022-11-15T12:39:11;100335.19;;;16.77;59.56
35248;BME280;21380;52.194;20.520;2022-11-15T12:59:52;100307.44;;;16.78;59.66
35248;BME280;21380;52.194;20.520;2022-11-15T13:02:39;100308.31;;;16.78;59.73
35248;BME280;21380;52.194;20.520;2022-11-15T13:08:40;100256.72;;;16.51;59.76
35248;BME280;21380;52.194;20.520;2022-11-15T13:14:38;100298.78;;;16.79;59.68
35248;BME280;21380;52.194;20.520;2022-11-15T13:28:35;100272.66;;;16.73;60.19
35248;BME280;21380;52.194;20.520;2022-11-15T13:31:29;100282.31;;;16.81;61.23
35248;BME280;21380;52.194;20.520;2022-11-15T13:37:02;100280.53;;;16.79;60.60
35248;BME280;21380;52.194;20.520;2022-11-15T13:39:30;100285.78;;;16.83;60.46
35248;BME280;21380;52.194;20.520;2022-11-15T13:41:58;100288.38;;;16.83;60.51
35248;BME280;21380;52.194;20.520;2022-11-15T13:44:31;100270.06;;;16.77;60.37
35248;BME280;21380;52.194;20.520;2022-11-15T13:47:03;100277.94;;;16.80;60.13
35248;BME280;21380;52.194;20.520;2022-11-15T13:49:30;100280.56;;;16.82;60.36
35248;BME280;21380;52.194;20.520;2022-11-15T13:51:56;100266.63;;;16.78;60.29
35248;BME280;21380;52.194;20.520;2022-11-15T13:54:30;100278.81;;;16.81;60.42
35248;BME280;21380;52.194;20.520;2022-11-15T13:57:21;100277.97;;;16.82;60.34
35248;BME280;21380;52.194;20.520;2022-11-15T13:59:53;100253.50;;;16.69;60.37
35248;BME280;21380;52.194;20.520;2022-11-15T14:02:26;100266.63;;;16.77;60.22
35248;BME280;21380;52.194;20.520;2022-11-15T14:04:59;100237.72;;;16.60;60.32
35248;BME280;21380;52.194;20.520;2022-11-15T14:07:27;100260.50;;;16.75;60.10
35248;BME280;21380;52.194;20.520;2022-11-15T14:09:54;100246.53;;;16.68;60.12
35248;BME280;21380;52.194;20.520;2022-11-15T14:12:34;100263.09;;;16.75;60.11
35248;BME280;21380;52.194;20.520;2022-11-15T14:15:39;100276.19;;;16.78;60.21
35248;BME280;21380;52.194;20.520;2022-11-15T14:18:05;100254.41;;;16.73;60.22
35248;BME280;21380;52.194;20.520;2022-11-15T14:20:34;100265.75;;;16.78;60.09
35248;BME280;21380;52.194;20.520;2022-11-15T14:25:59;100259.66;;;16.76;60.18
35248;BME280;21380;52.194;20.520;2022-11-15T14:30:53;100263.13;;;16.76;60.02
35248;BME280;21380;52.194;20.520;2022-11-15T14:33:36;100258.78;;;16.75;60.16
35248;BME280;21380;52.194;20.520;2022-11-15T14:36:17;100242.16;;;16.65;60.23
35248;BME280;21380;52.194;20.520;2022-11-15T14:38:44;100263.09;;;16.73;60.15
35248;BME280;21380;52.194;20.520;2022-11-15T14:41:17;100256.97;;;16.71;60.10
35248;BME280;21380;52.194;20.520;2022-11-15T14:43:44;100250.06;;;16.72;60.12
35248;BME280;21380;52.194;20.520;2022-11-15T14:46:10;100253.53;;;16.74;59.95
35248;BME280;21380;52.194;20.520;2022-11-15T14:48:36;100266.56;;;16.74;60.01
35248;BME280;21380;52.194;20.520;2022-11-15T14:51:02;100273.50;;;16.73;60.08
35248;BME280;21380;52.194;20.520;2022-11-15T14:53:28;100252.56;;;16.65;60.12
35248;BME280;21380;52.194;20.520;2022-11-15T14:55:54;100251.75;;;16.68;60.18
35248;BME280;21380;52.194;20.520;2022-11-15T14:58:20;100263.94;;;16.72;60.14
35248;BME280;21380;52.194;20.520;2022-11-15T15:00:46;100261.34;;;16.72;60.09